NKS001 TJSJ-KMCO
Flight info
| Callsign | NKS001 |
|---|---|
| Flight time | 2h 46m |
| Altitude | 34000 |
| Route | ACONY3 SAPPO Y280 OCTAL MUNGI1 |
| Aircraft | A320/M-SDE3FGHIRWY/LB1 |
Departure
| Time | 2026-05-04 10:51 |
|---|---|
| Airport | Luis Munoz Marin International Airport (TJSJ) |
Arrival
| Time | 2026-05-04 13:38 |
|---|---|
| Airport | Orlando International Airport (KMCO) |
| Time | Latitude | Longitude | Altitude | Speed | Heading |
|---|---|---|---|---|---|
| 2026-05-04 10:27 | 18.43862 | -66.00148 | 25 ft | 0 kts | 286° |
| 2026-05-04 10:40 | 18.43861 | -66.00142 | 25 ft | 2 kts | 287° |
| 2026-05-04 10:40 | 18.43856 | -66.00127 | 24 ft | 2 kts | 287° |
| 2026-05-04 10:40 | 18.43852 | -66.00111 | 24 ft | 2 kts | 287° |
| 2026-05-04 10:41 | 18.43848 | -66.00096 | 23 ft | 2 kts | 287° |
| 2026-05-04 10:41 | 18.43844 | -66.00082 | 23 ft | 2 kts | 287° |
| 2026-05-04 10:41 | 18.43839 | -66.00066 | 22 ft | 2 kts | 286° |
| 2026-05-04 10:41 | 18.43833 | -66.00051 | 22 ft | 2 kts | 310° |
| 2026-05-04 10:42 | 18.43822 | -66.00040 | 21 ft | 1 kts | 330° |
| 2026-05-04 10:42 | 18.43816 | -66.00037 | 21 ft | 1 kts | 341° |
| 2026-05-04 10:42 | 18.43813 | -66.00037 | 21 ft | 0 kts | 337° |
| 2026-05-04 10:44 | 18.43971 | -66.00107 | 24 ft | 12 kts | 337° |
| 2026-05-04 10:45 | 18.44056 | -66.00146 | 24 ft | 14 kts | 337° |
| 2026-05-04 10:45 | 18.44155 | -66.00188 | 23 ft | 16 kts | 337° |
| 2026-05-04 10:45 | 18.44250 | -66.00243 | 22 ft | 10 kts | 320° |
| 2026-05-04 10:45 | 18.44239 | -66.00297 | 22 ft | 9 kts | 247° |
| 2026-05-04 10:46 | 18.44199 | -66.00392 | 21 ft | 18 kts | 245° |
| 2026-05-04 10:46 | 18.44141 | -66.00538 | 21 ft | 22 kts | 246° |
| 2026-05-04 10:46 | 18.44082 | -66.00684 | 21 ft | 21 kts | 246° |
| 2026-05-04 10:46 | 18.44024 | -66.00829 | 20 ft | 21 kts | 248° |
| 2026-05-04 10:47 | 18.43965 | -66.00974 | 20 ft | 21 kts | 248° |
| 2026-05-04 10:47 | 18.43904 | -66.01122 | 17 ft | 22 kts | 248° |
| 2026-05-04 10:47 | 18.43844 | -66.01269 | 17 ft | 21 kts | 246° |
| 2026-05-04 10:47 | 18.43788 | -66.01412 | 17 ft | 20 kts | 248° |
| 2026-05-04 10:49 | 18.43855 | -66.01538 | 17 ft | 0 kts | 67° |
| 2026-05-04 10:50 | 18.43905 | -66.01415 | 17 ft | 54 kts | 67° |
| 2026-05-04 10:51 | 18.49431 | -65.99676 | 3144 ft | 215 kts | 336° |
| 2026-05-04 10:52 | 18.50841 | -66.00432 | 3540 ft | 238 kts | 336° |
| 2026-05-04 10:52 | 18.52371 | -66.01237 | 4065 ft | 257 kts | 337° |
| 2026-05-04 10:52 | 18.54042 | -66.02104 | 4611 ft | 275 kts | 337° |
| 2026-05-04 10:54 | 18.64540 | -66.11745 | 10346 ft | 303 kts | 309° |
| 2026-05-04 10:54 | 18.65877 | -66.13506 | 10836 ft | 316 kts | 309° |
| 2026-05-04 10:56 | 18.76407 | -66.26916 | 15281 ft | 349 kts | 308° |
| 2026-05-04 10:56 | 18.77945 | -66.28866 | 15956 ft | 350 kts | 308° |
| 2026-05-04 10:56 | 18.79510 | -66.30851 | 16623 ft | 352 kts | 308° |
| 2026-05-04 10:57 | 18.81058 | -66.32819 | 17273 ft | 353 kts | 308° |
| 2026-05-04 10:57 | 18.82629 | -66.34817 | 17892 ft | 355 kts | 308° |
| 2026-05-04 10:57 | 18.84220 | -66.36845 | 18451 ft | 358 kts | 308° |
| 2026-05-04 10:57 | 18.85813 | -66.38874 | 18960 ft | 363 kts | 308° |
| 2026-05-04 10:58 | 18.87434 | -66.40937 | 19464 ft | 367 kts | 308° |
| 2026-05-04 10:58 | 18.89068 | -66.43014 | 19957 ft | 371 kts | 309° |
| 2026-05-04 10:58 | 18.90722 | -66.45117 | 20446 ft | 375 kts | 309° |
| 2026-05-04 10:58 | 18.92413 | -66.47208 | 20920 ft | 379 kts | 311° |
| 2026-05-04 10:59 | 18.94257 | -66.49248 | 21381 ft | 383 kts | 315° |
| 2026-05-04 10:59 | 18.96177 | -66.51213 | 21848 ft | 387 kts | 316° |
| 2026-05-04 10:59 | 18.98123 | -66.53183 | 22314 ft | 390 kts | 317° |
| 2026-05-04 10:59 | 19.00091 | -66.55172 | 22784 ft | 394 kts | 317° |
| 2026-05-04 11:00 | 19.02063 | -66.57166 | 23294 ft | 396 kts | 316° |
| 2026-05-04 11:01 | 19.15132 | -66.72349 | 26909 ft | 403 kts | 308° |
| 2026-05-04 11:02 | 19.16890 | -66.74606 | 27388 ft | 403 kts | 308° |
| 2026-05-04 11:02 | 19.18696 | -66.76926 | 27857 ft | 404 kts | 308° |
| 2026-05-04 11:05 | 19.44540 | -67.10247 | 32642 ft | 425 kts | 309° |
| 2026-05-04 11:06 | 19.46401 | -67.12653 | 32943 ft | 427 kts | 309° |
| 2026-05-04 11:06 | 19.48291 | -67.15097 | 33266 ft | 428 kts | 308° |
| 2026-05-04 11:06 | 19.50190 | -67.17554 | 33594 ft | 429 kts | 309° |
| 2026-05-04 11:06 | 19.52066 | -67.19983 | 33928 ft | 429 kts | 309° |
| 2026-05-04 11:08 | 19.65296 | -67.37135 | 34062 ft | 430 kts | 309° |
| 2026-05-04 11:10 | 19.78511 | -67.54315 | 34056 ft | 430 kts | 308° |
| 2026-05-04 11:12 | 19.93581 | -67.74016 | 34059 ft | 431 kts | 308° |
| 2026-05-04 11:12 | 19.97365 | -67.78970 | 34053 ft | 431 kts | 308° |
| 2026-05-04 11:13 | 20.01138 | -67.83907 | 34049 ft | 430 kts | 308° |
| 2026-05-04 11:13 | 20.04897 | -67.88832 | 34046 ft | 431 kts | 308° |
| 2026-05-04 11:14 | 20.08676 | -67.93784 | 34046 ft | 430 kts | 307° |
| 2026-05-04 11:16 | 20.23751 | -68.13521 | 34048 ft | 429 kts | 307° |
| 2026-05-04 11:16 | 20.27488 | -68.18441 | 34050 ft | 429 kts | 307° |
| 2026-05-04 11:17 | 20.31230 | -68.23376 | 34049 ft | 429 kts | 307° |
| 2026-05-04 11:19 | 20.45834 | -68.43391 | 34054 ft | 426 kts | 301° |
| 2026-05-04 11:19 | 20.49000 | -68.48752 | 34051 ft | 427 kts | 301° |
| 2026-05-04 11:20 | 20.52135 | -68.54085 | 34051 ft | 426 kts | 300° |
| 2026-05-04 11:20 | 20.55277 | -68.59435 | 34051 ft | 426 kts | 300° |
| 2026-05-04 11:22 | 20.67786 | -68.80818 | 34052 ft | 425 kts | 300° |
| 2026-05-04 11:23 | 20.70912 | -68.86163 | 34047 ft | 424 kts | 300° |
| 2026-05-04 11:25 | 20.81829 | -69.04876 | 34048 ft | 424 kts | 300° |
| 2026-05-04 11:25 | 20.84933 | -69.10212 | 34043 ft | 424 kts | 300° |
| 2026-05-04 11:27 | 20.98907 | -69.34237 | 34043 ft | 423 kts | 300° |
| 2026-05-04 11:28 | 21.01984 | -69.39548 | 34040 ft | 422 kts | 300° |
| 2026-05-04 11:28 | 21.05086 | -69.44906 | 34041 ft | 422 kts | 300° |
| 2026-05-04 11:29 | 21.08161 | -69.50224 | 34038 ft | 423 kts | 300° |
| 2026-05-04 11:29 | 21.11270 | -69.55595 | 34037 ft | 422 kts | 300° |
| 2026-05-04 11:33 | 21.32796 | -69.92946 | 34029 ft | 421 kts | 299° |
| 2026-05-04 11:33 | 21.35866 | -69.98294 | 34029 ft | 420 kts | 299° |
| 2026-05-04 11:34 | 21.38914 | -70.03615 | 34031 ft | 419 kts | 299° |
| 2026-05-04 11:34 | 21.41960 | -70.08938 | 34027 ft | 419 kts | 299° |
| 2026-05-04 11:35 | 21.44999 | -70.14253 | 34024 ft | 419 kts | 299° |
| 2026-05-04 11:35 | 21.48050 | -70.19593 | 34020 ft | 420 kts | 299° |
| 2026-05-04 11:36 | 21.51092 | -70.24926 | 34023 ft | 420 kts | 299° |
| 2026-05-04 11:36 | 21.54123 | -70.30242 | 34028 ft | 420 kts | 299° |
| 2026-05-04 11:37 | 21.57161 | -70.35577 | 34023 ft | 419 kts | 298° |
| 2026-05-04 11:37 | 21.60195 | -70.40911 | 34025 ft | 419 kts | 298° |
| 2026-05-04 11:38 | 21.63245 | -70.46278 | 34024 ft | 419 kts | 298° |
| 2026-05-04 11:38 | 21.66263 | -70.51592 | 34025 ft | 418 kts | 298° |
| 2026-05-04 11:39 | 21.69280 | -70.56910 | 34020 ft | 418 kts | 298° |
| 2026-05-04 11:41 | 21.79838 | -70.75610 | 34019 ft | 418 kts | 298° |
| 2026-05-04 11:41 | 21.82848 | -70.80946 | 34019 ft | 418 kts | 298° |
| 2026-05-04 11:42 | 21.85869 | -70.86305 | 34019 ft | 417 kts | 298° |
| 2026-05-04 11:42 | 21.88877 | -70.91645 | 34020 ft | 418 kts | 298° |
| 2026-05-04 11:43 | 21.91875 | -70.96967 | 34022 ft | 418 kts | 298° |
| 2026-05-04 11:43 | 21.94888 | -71.02328 | 34021 ft | 417 kts | 298° |
| 2026-05-04 11:44 | 21.97893 | -71.07677 | 34020 ft | 418 kts | 298° |
| 2026-05-04 11:44 | 22.00903 | -71.13036 | 34024 ft | 418 kts | 297° |
| 2026-05-04 11:45 | 22.03882 | -71.18351 | 34028 ft | 417 kts | 298° |
| 2026-05-04 11:45 | 22.06882 | -71.23704 | 34030 ft | 417 kts | 298° |
| 2026-05-04 11:46 | 22.09872 | -71.29046 | 34035 ft | 416 kts | 297° |
| 2026-05-04 11:46 | 22.12888 | -71.34399 | 34030 ft | 417 kts | 298° |
| 2026-05-04 11:47 | 22.15876 | -71.39706 | 34032 ft | 417 kts | 297° |
| 2026-05-04 11:47 | 22.18862 | -71.45048 | 34038 ft | 416 kts | 297° |
| 2026-05-04 11:48 | 22.21845 | -71.50393 | 34038 ft | 416 kts | 297° |
| 2026-05-04 11:48 | 22.24829 | -71.55750 | 34038 ft | 416 kts | 297° |
| 2026-05-04 11:49 | 22.27798 | -71.61087 | 34034 ft | 416 kts | 297° |
| 2026-05-04 11:49 | 22.30754 | -71.66408 | 34036 ft | 415 kts | 297° |
| 2026-05-04 11:50 | 22.33723 | -71.71780 | 34033 ft | 415 kts | 297° |
| 2026-05-04 11:50 | 22.36678 | -71.77121 | 34035 ft | 414 kts | 297° |
| 2026-05-04 11:51 | 22.39619 | -71.82439 | 34035 ft | 414 kts | 297° |
| 2026-05-04 11:51 | 22.42577 | -71.87783 | 34032 ft | 414 kts | 297° |
| 2026-05-04 11:52 | 22.45522 | -71.93115 | 34034 ft | 414 kts | 297° |
| 2026-05-04 11:52 | 22.48469 | -71.98447 | 34033 ft | 413 kts | 297° |
| 2026-05-04 11:53 | 22.51409 | -72.03777 | 34035 ft | 413 kts | 297° |
| 2026-05-04 11:53 | 22.54340 | -72.09096 | 34032 ft | 413 kts | 297° |
| 2026-05-04 11:55 | 22.66081 | -72.30455 | 34033 ft | 412 kts | 297° |
| 2026-05-04 11:56 | 22.69003 | -72.35782 | 34032 ft | 412 kts | 296° |
| 2026-05-04 11:56 | 22.71910 | -72.41091 | 34030 ft | 411 kts | 297° |
| 2026-05-04 11:57 | 22.74825 | -72.46417 | 34032 ft | 412 kts | 297° |
| 2026-05-04 11:57 | 22.77728 | -72.51730 | 34031 ft | 412 kts | 297° |
| 2026-05-04 11:58 | 22.80640 | -72.57063 | 34032 ft | 412 kts | 297° |
| 2026-05-04 11:58 | 22.83543 | -72.62388 | 34031 ft | 412 kts | 297° |
| 2026-05-04 11:59 | 22.86465 | -72.67762 | 34029 ft | 411 kts | 296° |
| 2026-05-04 11:59 | 22.89345 | -72.73076 | 34029 ft | 411 kts | 296° |
| 2026-05-04 12:00 | 22.92245 | -72.78421 | 34028 ft | 410 kts | 296° |
| 2026-05-04 12:00 | 22.95120 | -72.83716 | 34028 ft | 410 kts | 296° |
| 2026-05-04 12:01 | 22.98017 | -72.89056 | 34025 ft | 410 kts | 296° |
| 2026-05-04 12:02 | 23.08102 | -73.07664 | 34027 ft | 409 kts | 296° |
| 2026-05-04 12:03 | 23.10994 | -73.13007 | 34024 ft | 408 kts | 296° |
| 2026-05-04 12:03 | 23.13886 | -73.18317 | 34026 ft | 408 kts | 296° |
| 2026-05-04 12:04 | 23.16751 | -73.23604 | 34025 ft | 409 kts | 296° |
| 2026-05-04 12:04 | 23.19620 | -73.28925 | 34025 ft | 408 kts | 296° |
| 2026-05-04 12:05 | 23.22470 | -73.34221 | 34024 ft | 408 kts | 296° |
| 2026-05-04 12:05 | 23.25327 | -73.39537 | 34026 ft | 408 kts | 296° |
| 2026-05-04 12:06 | 23.28183 | -73.44861 | 34024 ft | 407 kts | 296° |
| 2026-05-04 12:06 | 23.31033 | -73.50178 | 34029 ft | 407 kts | 296° |
| 2026-05-04 12:07 | 23.33880 | -73.55499 | 34024 ft | 407 kts | 296° |
| 2026-05-04 12:07 | 23.36716 | -73.60800 | 34028 ft | 406 kts | 296° |
| 2026-05-04 12:08 | 23.39554 | -73.66113 | 34029 ft | 406 kts | 295° |
| 2026-05-04 12:08 | 23.42364 | -73.71407 | 34026 ft | 406 kts | 296° |
| 2026-05-04 12:09 | 23.45183 | -73.76709 | 34023 ft | 405 kts | 296° |
| 2026-05-04 12:09 | 23.48010 | -73.82021 | 34027 ft | 405 kts | 296° |
| 2026-05-04 12:10 | 23.50824 | -73.87316 | 34027 ft | 404 kts | 295° |
| 2026-05-04 12:10 | 23.53623 | -73.92593 | 34025 ft | 404 kts | 296° |
| 2026-05-04 12:11 | 23.56436 | -73.97894 | 34027 ft | 404 kts | 296° |
| 2026-05-04 12:11 | 23.59240 | -74.03165 | 34026 ft | 403 kts | 295° |
| 2026-05-04 12:12 | 23.62049 | -74.08447 | 34025 ft | 402 kts | 295° |
| 2026-05-04 12:12 | 23.64839 | -74.13711 | 34021 ft | 402 kts | 295° |
| 2026-05-04 12:14 | 23.75952 | -74.34767 | 34022 ft | 402 kts | 295° |
| 2026-05-04 12:15 | 23.78726 | -74.40041 | 34023 ft | 402 kts | 295° |
| 2026-05-04 12:15 | 23.81518 | -74.45348 | 34020 ft | 402 kts | 295° |
| 2026-05-04 12:16 | 23.84282 | -74.50608 | 34022 ft | 401 kts | 295° |
| 2026-05-04 12:16 | 23.87056 | -74.55894 | 34022 ft | 400 kts | 295° |
| 2026-05-04 12:17 | 23.89800 | -74.61134 | 34021 ft | 400 kts | 295° |
| 2026-05-04 12:17 | 23.92570 | -74.66425 | 34026 ft | 399 kts | 294° |
| 2026-05-04 12:18 | 23.95301 | -74.71671 | 34024 ft | 399 kts | 294° |
| 2026-05-04 12:18 | 23.98048 | -74.76940 | 34022 ft | 399 kts | 294° |
| 2026-05-04 12:19 | 24.00782 | -74.82185 | 34023 ft | 398 kts | 294° |
| 2026-05-04 12:19 | 24.03525 | -74.87450 | 34023 ft | 397 kts | 294° |
| 2026-05-04 12:20 | 24.06234 | -74.92650 | 34024 ft | 397 kts | 294° |
| 2026-05-04 12:20 | 24.08965 | -74.97902 | 34023 ft | 396 kts | 294° |
| 2026-05-04 12:21 | 24.11702 | -75.03146 | 34024 ft | 397 kts | 294° |
| 2026-05-04 12:21 | 24.14437 | -75.08366 | 34025 ft | 396 kts | 294° |
| 2026-05-04 12:22 | 24.17167 | -75.13605 | 34026 ft | 397 kts | 294° |
| 2026-05-04 12:22 | 24.19876 | -75.18825 | 34028 ft | 397 kts | 294° |
| 2026-05-04 12:23 | 24.22591 | -75.24068 | 34027 ft | 397 kts | 294° |
| 2026-05-04 12:23 | 24.25313 | -75.29333 | 34025 ft | 396 kts | 294° |
| 2026-05-04 12:24 | 24.28018 | -75.34573 | 34026 ft | 397 kts | 294° |
| 2026-05-04 12:24 | 24.30714 | -75.39800 | 34028 ft | 396 kts | 294° |
| 2026-05-04 12:25 | 24.33423 | -75.45058 | 34023 ft | 396 kts | 294° |
| 2026-05-04 12:25 | 24.36120 | -75.50301 | 34025 ft | 396 kts | 293° |
| 2026-05-04 12:26 | 24.38815 | -75.55544 | 34027 ft | 396 kts | 293° |
| 2026-05-04 12:26 | 24.41522 | -75.60819 | 34025 ft | 395 kts | 294° |
| 2026-05-04 12:27 | 24.44204 | -75.66048 | 34029 ft | 395 kts | 293° |
| 2026-05-04 12:27 | 24.46888 | -75.71310 | 34027 ft | 395 kts | 293° |
| 2026-05-04 12:28 | 24.49570 | -75.76562 | 34022 ft | 394 kts | 293° |
| 2026-05-04 12:28 | 24.52248 | -75.81809 | 34026 ft | 395 kts | 293° |
| 2026-05-04 12:29 | 24.54932 | -75.87068 | 34024 ft | 395 kts | 293° |
| 2026-05-04 12:29 | 24.57610 | -75.92320 | 34026 ft | 395 kts | 293° |
| 2026-05-04 12:30 | 24.60277 | -75.97554 | 34026 ft | 394 kts | 293° |
| 2026-05-04 12:30 | 24.62958 | -76.02824 | 34025 ft | 394 kts | 293° |
| 2026-05-04 12:31 | 24.65626 | -76.08069 | 34027 ft | 395 kts | 293° |
| 2026-05-04 12:31 | 24.68308 | -76.13353 | 34023 ft | 395 kts | 293° |
| 2026-05-04 12:32 | 24.72302 | -76.21229 | 34022 ft | 394 kts | 293° |
| 2026-05-04 12:33 | 24.74978 | -76.26512 | 34022 ft | 394 kts | 293° |
| 2026-05-04 12:33 | 24.77643 | -76.31780 | 34015 ft | 395 kts | 293° |
| 2026-05-04 12:34 | 24.80315 | -76.37070 | 34013 ft | 396 kts | 292° |
| 2026-05-04 12:34 | 24.82988 | -76.42370 | 34016 ft | 396 kts | 293° |
| 2026-05-04 12:35 | 24.85659 | -76.47671 | 34014 ft | 397 kts | 293° |
| 2026-05-04 12:35 | 24.88324 | -76.52963 | 34010 ft | 397 kts | 293° |
| 2026-05-04 12:36 | 24.91008 | -76.58293 | 34010 ft | 397 kts | 293° |
| 2026-05-04 12:36 | 24.93677 | -76.63610 | 34006 ft | 397 kts | 293° |
| 2026-05-04 12:37 | 24.96346 | -76.68941 | 34011 ft | 398 kts | 292° |
| 2026-05-04 12:37 | 24.98991 | -76.74240 | 34009 ft | 397 kts | 292° |
| 2026-05-04 12:38 | 25.01665 | -76.79586 | 34010 ft | 398 kts | 293° |
| 2026-05-04 12:38 | 25.04328 | -76.84918 | 34008 ft | 398 kts | 293° |
| 2026-05-04 12:39 | 25.07004 | -76.90271 | 34009 ft | 398 kts | 292° |
| 2026-05-04 12:39 | 25.09672 | -76.95624 | 34006 ft | 399 kts | 293° |
| 2026-05-04 12:40 | 25.12355 | -77.00961 | 34008 ft | 399 kts | 293° |
| 2026-05-04 12:40 | 25.15040 | -77.06318 | 34004 ft | 399 kts | 293° |
| 2026-05-04 12:41 | 25.17694 | -77.11652 | 34006 ft | 397 kts | 293° |
| 2026-05-04 12:41 | 25.20350 | -77.16994 | 34011 ft | 398 kts | 292° |
| 2026-05-04 12:42 | 25.22993 | -77.22339 | 34014 ft | 395 kts | 292° |
| 2026-05-04 12:42 | 25.25627 | -77.27672 | 34013 ft | 396 kts | 293° |
| 2026-05-04 12:43 | 25.28217 | -77.32984 | 34016 ft | 394 kts | 290° |
| 2026-05-04 12:43 | 25.30409 | -77.38507 | 34012 ft | 389 kts | 285° |
| 2026-05-04 12:44 | 25.32243 | -77.44089 | 34013 ft | 388 kts | 284° |
| 2026-05-04 12:44 | 25.34068 | -77.49700 | 34019 ft | 388 kts | 285° |
| 2026-05-04 12:45 | 25.35884 | -77.55296 | 34021 ft | 389 kts | 285° |
| 2026-05-04 12:45 | 25.37703 | -77.60915 | 34019 ft | 389 kts | 284° |
| 2026-05-04 12:46 | 25.39520 | -77.66537 | 34021 ft | 390 kts | 284° |
| 2026-05-04 12:46 | 25.41332 | -77.72187 | 34017 ft | 388 kts | 284° |
| 2026-05-04 12:47 | 25.43085 | -77.77784 | 34015 ft | 387 kts | 282° |
| 2026-05-04 12:47 | 25.44549 | -77.83482 | 34016 ft | 387 kts | 280° |
| 2026-05-04 12:48 | 25.45992 | -77.89217 | 34018 ft | 385 kts | 281° |
| 2026-05-04 12:48 | 25.47410 | -77.94873 | 34016 ft | 384 kts | 281° |
| 2026-05-04 12:49 | 25.48841 | -78.00571 | 34012 ft | 385 kts | 281° |
| 2026-05-04 12:49 | 25.50254 | -78.06224 | 34014 ft | 383 kts | 281° |
| 2026-05-04 12:50 | 25.51671 | -78.11917 | 34013 ft | 384 kts | 281° |
| 2026-05-04 12:50 | 25.53080 | -78.17591 | 34016 ft | 383 kts | 281° |
| 2026-05-04 12:51 | 25.54485 | -78.23234 | 34012 ft | 383 kts | 281° |
| 2026-05-04 12:51 | 25.55891 | -78.28925 | 34015 ft | 381 kts | 281° |
| 2026-05-04 12:52 | 25.57281 | -78.34538 | 34013 ft | 380 kts | 281° |
| 2026-05-04 12:52 | 25.58678 | -78.40187 | 34016 ft | 382 kts | 281° |
| 2026-05-04 12:53 | 25.60070 | -78.45842 | 34019 ft | 381 kts | 281° |
| 2026-05-04 12:53 | 25.61451 | -78.51464 | 34025 ft | 380 kts | 281° |
| 2026-05-04 12:54 | 25.62846 | -78.57126 | 34019 ft | 380 kts | 281° |
| 2026-05-04 12:54 | 25.64222 | -78.62747 | 34025 ft | 379 kts | 281° |
| 2026-05-04 12:55 | 25.65594 | -78.68357 | 34026 ft | 377 kts | 280° |
| 2026-05-04 12:55 | 25.66960 | -78.73959 | 34026 ft | 378 kts | 280° |
| 2026-05-04 12:56 | 25.68326 | -78.79579 | 34027 ft | 376 kts | 281° |
| 2026-05-04 12:56 | 25.69689 | -78.85182 | 34028 ft | 375 kts | 280° |
| 2026-05-04 12:57 | 25.71039 | -78.90745 | 34028 ft | 375 kts | 281° |
| 2026-05-04 12:57 | 25.72382 | -78.96300 | 34026 ft | 375 kts | 281° |
| 2026-05-04 12:58 | 25.73732 | -79.01859 | 34027 ft | 374 kts | 280° |
| 2026-05-04 12:58 | 25.75075 | -79.07433 | 34019 ft | 374 kts | 281° |
| 2026-05-04 12:59 | 25.76422 | -79.13016 | 34030 ft | 375 kts | 281° |
| 2026-05-04 12:59 | 25.77759 | -79.18586 | 34018 ft | 374 kts | 281° |
| 2026-05-04 13:00 | 25.79099 | -79.24144 | 34027 ft | 374 kts | 281° |
| 2026-05-04 13:00 | 25.80428 | -79.29695 | 34020 ft | 374 kts | 281° |
| 2026-05-04 13:01 | 25.81760 | -79.35247 | 34023 ft | 375 kts | 281° |
| 2026-05-04 13:01 | 25.83101 | -79.40851 | 34024 ft | 375 kts | 281° |
| 2026-05-04 13:02 | 25.84427 | -79.46413 | 34026 ft | 373 kts | 281° |
| 2026-05-04 13:02 | 25.85750 | -79.51971 | 34024 ft | 374 kts | 281° |
| 2026-05-04 13:03 | 25.87072 | -79.57529 | 34022 ft | 374 kts | 281° |
| 2026-05-04 13:03 | 25.88387 | -79.63096 | 34025 ft | 373 kts | 282° |
| 2026-05-04 13:04 | 25.89699 | -79.68649 | 34024 ft | 372 kts | 281° |
| 2026-05-04 13:04 | 25.91112 | -79.74177 | 34022 ft | 373 kts | 284° |
| 2026-05-04 13:05 | 25.92966 | -79.79555 | 34022 ft | 375 kts | 289° |
| 2026-05-04 13:05 | 25.95278 | -79.84739 | 34024 ft | 378 kts | 294° |
| 2026-05-04 13:06 | 25.98005 | -79.89770 | 34025 ft | 379 kts | 296° |
| 2026-05-04 13:06 | 26.00790 | -79.94772 | 34026 ft | 381 kts | 296° |
| 2026-05-04 13:07 | 26.03590 | -79.99780 | 34034 ft | 380 kts | 296° |
| 2026-05-04 13:07 | 26.06362 | -80.04746 | 34012 ft | 378 kts | 296° |
| 2026-05-04 13:07 | 26.07748 | -80.07224 | 33648 ft | 373 kts | 296° |
| 2026-05-04 13:08 | 26.09112 | -80.09673 | 32861 ft | 377 kts | 297° |
| 2026-05-04 13:08 | 26.10518 | -80.12179 | 31951 ft | 385 kts | 299° |
| 2026-05-04 13:08 | 26.12096 | -80.14584 | 31149 ft | 390 kts | 304° |
| 2026-05-04 13:08 | 26.13885 | -80.16859 | 30654 ft | 387 kts | 308° |
| 2026-05-04 13:09 | 26.15793 | -80.18921 | 30232 ft | 383 kts | 312° |
| 2026-05-04 13:09 | 26.17848 | -80.20805 | 30041 ft | 383 kts | 316° |
| 2026-05-04 13:09 | 26.20041 | -80.22502 | 30033 ft | 389 kts | 321° |
| 2026-05-04 13:10 | 26.24865 | -80.25369 | 30034 ft | 395 kts | 327° |
| 2026-05-04 13:10 | 26.29827 | -80.27980 | 30034 ft | 394 kts | 327° |
| 2026-05-04 13:11 | 26.34783 | -80.30567 | 30035 ft | 396 kts | 327° |
| 2026-05-04 13:11 | 26.39794 | -80.33186 | 30037 ft | 395 kts | 327° |
| 2026-05-04 13:12 | 26.44751 | -80.35777 | 30041 ft | 394 kts | 327° |
| 2026-05-04 13:12 | 26.49724 | -80.38377 | 30045 ft | 394 kts | 327° |
| 2026-05-04 13:13 | 26.54685 | -80.40984 | 30037 ft | 393 kts | 327° |
| 2026-05-04 13:13 | 26.59597 | -80.43556 | 30043 ft | 391 kts | 327° |
| 2026-05-04 13:14 | 26.64694 | -80.45927 | 30042 ft | 396 kts | 332° |
| 2026-05-04 13:14 | 26.69873 | -80.48064 | 30040 ft | 397 kts | 332° |
| 2026-05-04 13:15 | 26.75047 | -80.50196 | 29955 ft | 392 kts | 332° |
| 2026-05-04 13:15 | 26.77572 | -80.51235 | 29484 ft | 389 kts | 332° |
| 2026-05-04 13:15 | 26.80119 | -80.52290 | 28821 ft | 388 kts | 332° |
| 2026-05-04 13:15 | 26.82643 | -80.53336 | 28247 ft | 385 kts | 332° |
| 2026-05-04 13:16 | 26.85128 | -80.54366 | 27690 ft | 383 kts | 331° |
| 2026-05-04 13:16 | 26.87640 | -80.55411 | 27106 ft | 380 kts | 332° |
| 2026-05-04 13:16 | 26.90104 | -80.56435 | 26550 ft | 377 kts | 332° |
| 2026-05-04 13:16 | 26.92534 | -80.57444 | 26004 ft | 375 kts | 332° |
| 2026-05-04 13:17 | 26.94982 | -80.58460 | 25425 ft | 372 kts | 332° |
| 2026-05-04 13:17 | 26.97402 | -80.59467 | 24894 ft | 370 kts | 332° |
| 2026-05-04 13:17 | 26.99803 | -80.60466 | 24331 ft | 368 kts | 332° |
| 2026-05-04 13:17 | 27.02203 | -80.61468 | 23786 ft | 366 kts | 332° |
| 2026-05-04 13:18 | 27.04582 | -80.62460 | 23284 ft | 362 kts | 332° |
| 2026-05-04 13:18 | 27.06911 | -80.63432 | 23063 ft | 361 kts | 333° |
| 2026-05-04 13:18 | 27.09287 | -80.64422 | 23054 ft | 363 kts | 333° |
| 2026-05-04 13:18 | 27.11654 | -80.65405 | 23055 ft | 364 kts | 332° |
| 2026-05-04 13:19 | 27.14017 | -80.66396 | 23050 ft | 363 kts | 332° |
| 2026-05-04 13:19 | 27.16409 | -80.67402 | 23051 ft | 364 kts | 332° |
| 2026-05-04 13:19 | 27.18788 | -80.68401 | 23062 ft | 364 kts | 333° |
| 2026-05-04 13:19 | 27.21168 | -80.69398 | 23060 ft | 364 kts | 332° |
| 2026-05-04 13:20 | 27.23502 | -80.70379 | 22981 ft | 359 kts | 332° |
| 2026-05-04 13:20 | 27.25845 | -80.71362 | 22510 ft | 357 kts | 332° |
| 2026-05-04 13:20 | 27.28185 | -80.72347 | 21915 ft | 357 kts | 332° |
| 2026-05-04 13:20 | 27.30492 | -80.73322 | 21401 ft | 355 kts | 333° |
| 2026-05-04 13:21 | 27.32801 | -80.74294 | 20893 ft | 354 kts | 333° |
| 2026-05-04 13:21 | 27.35088 | -80.75253 | 20366 ft | 353 kts | 333° |
| 2026-05-04 13:21 | 27.37377 | -80.76217 | 19865 ft | 351 kts | 333° |
| 2026-05-04 13:21 | 27.39669 | -80.77201 | 19371 ft | 349 kts | 333° |
| 2026-05-04 13:22 | 27.41929 | -80.78183 | 18857 ft | 347 kts | 333° |
| 2026-05-04 13:22 | 27.44151 | -80.79147 | 18372 ft | 346 kts | 333° |
| 2026-05-04 13:22 | 27.46411 | -80.80127 | 17865 ft | 344 kts | 333° |
| 2026-05-04 13:22 | 27.48609 | -80.81081 | 17419 ft | 342 kts | 333° |
| 2026-05-04 13:23 | 27.50847 | -80.82054 | 16937 ft | 341 kts | 334° |
| 2026-05-04 13:23 | 27.53034 | -80.83002 | 16502 ft | 338 kts | 334° |
| 2026-05-04 13:23 | 27.55227 | -80.83954 | 16055 ft | 336 kts | 334° |
| 2026-05-04 13:23 | 27.57358 | -80.84956 | 15600 ft | 333 kts | 331° |
| 2026-05-04 13:24 | 27.59468 | -80.86046 | 15171 ft | 330 kts | 330° |
| 2026-05-04 13:24 | 27.61550 | -80.87135 | 14978 ft | 330 kts | 331° |
| 2026-05-04 13:24 | 27.63628 | -80.88224 | 14966 ft | 331 kts | 331° |
| 2026-05-04 13:25 | 27.67827 | -80.90425 | 14932 ft | 327 kts | 331° |
| 2026-05-04 13:25 | 27.69874 | -80.91499 | 14545 ft | 325 kts | 331° |
| 2026-05-04 13:25 | 27.71920 | -80.92574 | 14043 ft | 325 kts | 332° |
| 2026-05-04 13:25 | 27.73962 | -80.93646 | 13566 ft | 324 kts | 332° |
| 2026-05-04 13:26 | 27.76006 | -80.94718 | 13098 ft | 322 kts | 332° |
| 2026-05-04 13:26 | 27.78025 | -80.95778 | 12631 ft | 321 kts | 332° |
| 2026-05-04 13:26 | 27.80045 | -80.96838 | 12168 ft | 320 kts | 332° |
| 2026-05-04 13:26 | 27.82066 | -80.97903 | 11703 ft | 318 kts | 332° |
| 2026-05-04 13:27 | 27.84063 | -80.98953 | 11246 ft | 317 kts | 332° |
| 2026-05-04 13:27 | 27.86049 | -80.99995 | 10994 ft | 308 kts | 332° |
| 2026-05-04 13:27 | 27.87963 | -81.01002 | 10810 ft | 298 kts | 331° |
| 2026-05-04 13:27 | 27.89801 | -81.01969 | 10627 ft | 288 kts | 332° |
| 2026-05-04 13:28 | 27.91602 | -81.02921 | 10306 ft | 284 kts | 332° |
| 2026-05-04 13:28 | 27.93414 | -81.03857 | 9918 ft | 284 kts | 334° |
| 2026-05-04 13:28 | 27.95266 | -81.04674 | 9530 ft | 284 kts | 336° |
| 2026-05-04 13:28 | 27.97108 | -81.05456 | 9151 ft | 283 kts | 336° |
| 2026-05-04 13:29 | 27.98945 | -81.06230 | 8760 ft | 282 kts | 337° |
| 2026-05-04 13:29 | 28.00782 | -81.07007 | 8376 ft | 281 kts | 338° |
| 2026-05-04 13:29 | 28.02605 | -81.07780 | 7989 ft | 280 kts | 338° |
| 2026-05-04 13:29 | 28.04443 | -81.08559 | 7608 ft | 279 kts | 338° |
| 2026-05-04 13:30 | 28.06256 | -81.09326 | 7228 ft | 278 kts | 339° |
| 2026-05-04 13:30 | 28.08030 | -81.10206 | 6822 ft | 278 kts | 326° |
| 2026-05-04 13:30 | 28.09404 | -81.11695 | 6452 ft | 277 kts | 309° |
| 2026-05-04 13:30 | 28.10588 | -81.13422 | 6061 ft | 277 kts | 308° |
| 2026-05-04 13:31 | 28.11771 | -81.15150 | 5670 ft | 277 kts | 309° |
| 2026-05-04 13:31 | 28.12977 | -81.16837 | 5321 ft | 275 kts | 311° |
| 2026-05-04 13:31 | 28.14201 | -81.18499 | 4966 ft | 273 kts | 312° |
| 2026-05-04 13:31 | 28.15425 | -81.20129 | 4600 ft | 272 kts | 313° |
| 2026-05-04 13:32 | 28.16669 | -81.21767 | 4245 ft | 270 kts | 313° |
| 2026-05-04 13:32 | 28.17878 | -81.23354 | 4075 ft | 261 kts | 313° |
| 2026-05-04 13:32 | 28.19031 | -81.24866 | 3993 ft | 249 kts | 313° |
| 2026-05-04 13:32 | 28.20135 | -81.26314 | 3979 ft | 234 kts | 313° |
| 2026-05-04 13:33 | 28.21214 | -81.27638 | 3929 ft | 219 kts | 328° |
| 2026-05-04 13:33 | 28.22569 | -81.28233 | 3734 ft | 206 kts | 359° |
| 2026-05-04 13:33 | 28.23992 | -81.28225 | 3475 ft | 204 kts | 7° |
| 2026-05-04 13:33 | 28.25420 | -81.28133 | 3205 ft | 203 kts | 6° |
| 2026-05-04 13:34 | 28.26820 | -81.28086 | 2938 ft | 203 kts | 4° |
| 2026-05-04 13:34 | 28.28212 | -81.28083 | 2736 ft | 197 kts | 4° |
| 2026-05-04 13:34 | 28.29567 | -81.28097 | 2450 ft | 189 kts | 4° |
| 2026-05-04 13:34 | 28.30837 | -81.28115 | 2213 ft | 178 kts | 4° |
| 2026-05-04 13:35 | 28.32033 | -81.28130 | 1990 ft | 165 kts | 5° |
| 2026-05-04 13:35 | 28.34184 | -81.28155 | 1539 ft | 143 kts | 5° |
| 2026-05-04 13:35 | 28.35144 | -81.28165 | 1354 ft | 136 kts | 5° |
| 2026-05-04 13:36 | 28.36096 | -81.28173 | 1199 ft | 135 kts | 4° |
| 2026-05-04 13:36 | 28.37044 | -81.28181 | 1043 ft | 135 kts | 4° |
| 2026-05-04 13:36 | 28.37974 | -81.28189 | 869 ft | 135 kts | 4° |
| 2026-05-04 13:36 | 28.38913 | -81.28204 | 669 ft | 134 kts | 2° |
| 2026-05-04 13:37 | 28.39846 | -81.28213 | 489 ft | 134 kts | 3° |
| 2026-05-04 13:37 | 28.40783 | -81.28223 | 328 ft | 134 kts | 2° |
| 2026-05-04 13:37 | 28.41721 | -81.28233 | 153 ft | 134 kts | 1° |
| 2026-05-04 13:37 | 28.42346 | -81.28237 | 90 ft | 129 kts | 1° |
| 2026-05-04 13:38 | 28.43295 | -81.28246 | 87 ft | 70 kts | 359° |
| 2026-05-04 13:38 | 28.43635 | -81.28251 | 87 ft | 36 kts | 359° |
| 2026-05-04 13:38 | 28.43817 | -81.28287 | 87 ft | 12 kts | 328° |
| 2026-05-04 13:38 | 28.43848 | -81.28314 | 87 ft | 5 kts | 315° |
| 2026-05-04 13:39 | 28.43873 | -81.28369 | 87 ft | 10 kts | 281° |
| 2026-05-04 13:39 | 28.43874 | -81.28463 | 87 ft | 13 kts | 273° |
| 2026-05-04 13:39 | 28.43875 | -81.28586 | 87 ft | 17 kts | 270° |
| 2026-05-04 13:39 | 28.43873 | -81.28737 | 87 ft | 20 kts | 269° |
| 2026-05-04 13:40 | 28.43872 | -81.28906 | 87 ft | 21 kts | 270° |
| 2026-05-04 13:40 | 28.43870 | -81.29077 | 87 ft | 21 kts | 270° |
| 2026-05-04 13:40 | 28.43860 | -81.29243 | 87 ft | 20 kts | 231° |
| 2026-05-04 13:40 | 28.43724 | -81.29263 | 88 ft | 19 kts | 179° |
| 2026-05-04 13:41 | 28.43589 | -81.29263 | 90 ft | 17 kts | 194° |
| 2026-05-04 13:41 | 28.43552 | -81.29360 | 90 ft | 13 kts | 270° |
| 2026-05-04 13:41 | 28.43552 | -81.29473 | 91 ft | 14 kts | 269° |
| 2026-05-04 13:42 | 28.43550 | -81.29715 | 91 ft | 15 kts | 269° |
| 2026-05-04 13:42 | 28.43598 | -81.29806 | 91 ft | 15 kts | 358° |
| 2026-05-04 13:42 | 28.43707 | -81.29810 | 91 ft | 15 kts | 355° |
| 2026-05-04 13:42 | 28.43808 | -81.29853 | 91 ft | 16 kts | 323° |
| 2026-05-04 13:43 | 28.43879 | -81.29964 | 91 ft | 18 kts | 297° |
| 2026-05-04 13:43 | 28.43902 | -81.30112 | 91 ft | 20 kts | 274° |
| 2026-05-04 13:43 | 28.43910 | -81.30282 | 91 ft | 22 kts | 273° |
| 2026-05-04 13:43 | 28.43918 | -81.30463 | 90 ft | 23 kts | 273° |
| 2026-05-04 13:44 | 28.43930 | -81.30653 | 88 ft | 24 kts | 274° |
| 2026-05-04 13:44 | 28.43941 | -81.30841 | 87 ft | 23 kts | 274° |
| 2026-05-04 13:44 | 28.43942 | -81.31027 | 88 ft | 23 kts | 270° |
| 2026-05-04 13:44 | 28.43937 | -81.31206 | 89 ft | 22 kts | 265° |
| 2026-05-04 13:45 | 28.43929 | -81.31374 | 90 ft | 20 kts | 268° |
| 2026-05-04 13:45 | 28.43858 | -81.31462 | 91 ft | 17 kts | 178° |
| 2026-05-04 13:45 | 28.43745 | -81.31421 | 89 ft | 17 kts | 170° |
| 2026-05-04 13:45 | 28.43657 | -81.31423 | 87 ft | 9 kts | 216° |
| 2026-05-04 13:46 | 28.43626 | -81.31464 | 87 ft | 3 kts | 233° |
| 2026-05-04 13:46 | 28.43619 | -81.31476 | 87 ft | 0 kts | 233° |